createdAt,value
2022-12-25T00:02:05.191Z,91.64
2022-12-25T00:04:31.596Z,92.01
2022-12-25T00:06:59.478Z,91.71
2022-12-25T00:09:29.071Z,91.65
2022-12-25T00:11:56.562Z,91.76
2022-12-25T00:14:23.984Z,91.75
2022-12-25T00:16:50.473Z,91.46
2022-12-25T00:19:16.887Z,91.85
2022-12-25T00:21:43.331Z,91.34
2022-12-25T00:24:09.848Z,91.65
2022-12-25T00:26:36.301Z,91.99
2022-12-25T00:29:02.652Z,92.37
2022-12-25T00:31:29.217Z,92.32
2022-12-25T00:33:56.758Z,92.59
2022-12-25T00:36:23.547Z,92.63
2022-12-25T00:38:49.940Z,92.47
2022-12-25T00:41:39.200Z,92.41
2022-12-25T00:44:06.600Z,92.74
2022-12-25T00:46:33.124Z,92.29
2022-12-25T00:49:02.651Z,92.47
2022-12-25T00:51:29.225Z,92.29
2022-12-25T00:53:55.598Z,92.51
2022-12-25T00:56:21.997Z,92.50
2022-12-25T00:58:48.642Z,92.40
2022-12-25T01:01:15.275Z,92.75
2022-12-25T01:03:41.833Z,93.24
2022-12-25T01:06:12.651Z,92.91
2022-12-25T01:08:59.950Z,92.81
2022-12-25T01:11:26.910Z,92.64
2022-12-25T01:13:53.287Z,92.20
2022-12-25T01:16:19.775Z,92.17
2022-12-25T01:18:46.630Z,92.35
2022-12-25T01:21:20.906Z,92.16
2022-12-25T01:23:50.446Z,92.43
2022-12-25T01:26:18.100Z,92.02
2022-12-25T01:28:44.614Z,92.53
2022-12-25T01:31:13.988Z,92.47
2022-12-25T01:33:42.347Z,92.41
2022-12-25T01:36:28.987Z,93.02
2022-12-25T01:38:55.593Z,92.49
2022-12-25T01:41:24.497Z,92.73
2022-12-25T01:44:14.165Z,92.67
2022-12-25T01:46:41.246Z,92.85
2022-12-25T01:49:22.514Z,92.65
2022-12-25T01:52:18.890Z,93.04
2022-12-25T01:54:59.812Z,92.73
2022-12-25T01:57:30.635Z,92.72
2022-12-25T01:59:58.234Z,92.95
2022-12-25T02:02:25.561Z,93.20
2022-12-25T02:05:30.000Z,92.99
2022-12-25T02:08:01.884Z,93.11
2022-12-25T02:10:28.567Z,93.65
2022-12-25T02:12:55.381Z,93.22
2022-12-25T02:15:26.916Z,93.83
2022-12-25T02:18:12.060Z,93.73
2022-12-25T02:21:03.185Z,93.58
2022-12-25T02:23:42.107Z,93.54
2022-12-25T02:26:47.824Z,93.22
2022-12-25T02:29:25.172Z,93.57
2022-12-25T02:32:07.936Z,93.55
2022-12-25T02:34:45.054Z,93.06
2022-12-25T02:37:56.528Z,93.31
2022-12-25T02:40:40.001Z,93.02
2022-12-25T02:43:33.039Z,92.87
2022-12-25T02:46:22.470Z,93.58
2022-12-25T02:49:15.320Z,93.25
2022-12-25T02:52:04.049Z,93.15
2022-12-25T02:54:53.859Z,93.04
2022-12-25T02:57:43.109Z,93.23
2022-12-25T03:00:29.380Z,93.76
2022-12-25T03:03:17.793Z,93.52
2022-12-25T03:06:04.037Z,93.64
2022-12-25T03:08:36.811Z,93.87
2022-12-25T03:11:25.362Z,93.74
2022-12-25T03:13:55.565Z,94.22
2022-12-25T03:16:41.573Z,93.89
2022-12-25T03:19:27.125Z,95.15
2022-12-25T03:22:15.552Z,94.84
2022-12-25T03:25:00.872Z,94.76
2022-12-25T03:27:31.918Z,94.12
2022-12-25T03:30:17.136Z,94.48
2022-12-25T03:32:58.623Z,94.44
2022-12-25T03:35:46.495Z,94.03
2022-12-25T03:38:49.967Z,93.94
2022-12-25T03:42:02.343Z,94.27
2022-12-25T03:45:18.578Z,94.51
2022-12-25T03:48:07.069Z,94.09
2022-12-25T03:50:57.559Z,94.82
2022-12-25T03:53:49.995Z,94.43
2022-12-25T03:56:36.045Z,94.45
2022-12-25T03:59:24.078Z,94.70
2022-12-25T04:02:10.440Z,94.52
2022-12-25T04:04:55.928Z,94.69
2022-12-25T04:07:40.639Z,94.99
2022-12-25T04:10:26.495Z,95.23
2022-12-25T04:13:11.871Z,95.47
2022-12-25T04:15:56.683Z,95.18
2022-12-25T04:18:41.520Z,94.94
2022-12-25T04:21:26.461Z,94.81
2022-12-25T04:24:11.209Z,94.54
2022-12-25T04:26:55.934Z,94.42
2022-12-25T04:29:40.720Z,94.42
2022-12-25T04:32:25.576Z,94.65
2022-12-25T04:35:10.815Z,94.29
2022-12-25T04:37:37.187Z,95.27
2022-12-25T04:40:05.270Z,95.17
2022-12-25T04:42:31.705Z,94.74
2022-12-25T04:44:58.104Z,94.43
2022-12-25T04:47:24.494Z,94.36
2022-12-25T04:49:50.984Z,94.80
2022-12-25T04:52:17.375Z,94.65
2022-12-25T04:54:43.816Z,94.88
2022-12-25T04:57:10.205Z,95.13
2022-12-25T04:59:36.570Z,94.96
2022-12-25T05:02:03.104Z,95.50
2022-12-25T05:04:29.592Z,94.94
2022-12-25T05:06:55.989Z,94.98
2022-12-25T05:09:22.529Z,95.22
2022-12-25T05:11:49.067Z,94.47
2022-12-25T05:14:15.718Z,95.40
2022-12-25T05:16:42.250Z,95.19
2022-12-25T05:19:09.629Z,95.72
2022-12-25T05:21:36.332Z,96.31
2022-12-25T05:24:02.737Z,96.54
2022-12-25T05:26:29.177Z,97.11
2022-12-25T05:28:56.534Z,97.14
2022-12-25T05:31:23.214Z,97.45
2022-12-25T05:33:51.448Z,97.22
2022-12-25T05:36:18.131Z,97.14
2022-12-25T05:38:44.583Z,97.71
2022-12-25T05:41:11.052Z,96.90
2022-12-25T05:43:37.469Z,97.48
2022-12-25T05:46:09.177Z,97.58
2022-12-25T05:48:37.428Z,97.25
2022-12-25T05:51:12.539Z,96.89
2022-12-25T05:53:39.435Z,96.98
2022-12-25T05:56:07.987Z,96.84
2022-12-25T05:58:35.584Z,97.31
2022-12-25T06:01:02.497Z,97.33
2022-12-25T06:03:29.443Z,97.57
2022-12-25T06:05:55.913Z,97.29
2022-12-25T06:08:22.271Z,97.20
2022-12-25T06:10:49.359Z,96.68
2022-12-25T06:13:15.689Z,96.85
2022-12-25T06:15:42.359Z,97.38
2022-12-25T06:18:08.880Z,97.31
2022-12-25T06:20:35.283Z,97.86
2022-12-25T06:23:02.162Z,97.73
2022-12-25T06:25:28.656Z,98.46
2022-12-25T06:27:55.150Z,97.06
2022-12-25T06:30:21.644Z,97.32
2022-12-25T06:32:48.156Z,97.68
2022-12-25T06:35:14.566Z,97.31
2022-12-25T06:37:40.967Z,97.51
2022-12-25T06:40:08.000Z,97.67
2022-12-25T06:42:34.422Z,98.18
2022-12-25T06:45:00.787Z,96.87
2022-12-25T06:47:27.201Z,97.70
2022-12-25T06:49:53.575Z,97.91
2022-12-25T06:52:20.089Z,97.88
2022-12-25T06:54:47.375Z,97.64
2022-12-25T06:57:13.790Z,97.66
2022-12-25T06:59:40.290Z,97.44
2022-12-25T07:02:21.636Z,97.44
2022-12-25T07:04:48.581Z,97.32
2022-12-25T07:07:15.297Z,97.24
2022-12-25T07:09:42.570Z,97.40
2022-12-25T07:12:20.808Z,97.36
2022-12-25T07:14:49.801Z,97.13
2022-12-25T07:17:17.331Z,97.26
2022-12-25T07:19:45.307Z,97.36
2022-12-25T07:22:12.803Z,97.34
2022-12-25T07:24:39.336Z,97.19
2022-12-25T07:27:06.378Z,97.35
2022-12-25T07:29:32.732Z,97.47
2022-12-25T07:31:59.214Z,96.37
2022-12-25T07:34:25.908Z,96.87
2022-12-25T07:36:54.636Z,96.74
2022-12-25T07:39:21.005Z,96.92
2022-12-25T07:41:47.406Z,96.83
2022-12-25T07:44:13.781Z,96.55
2022-12-25T07:46:40.277Z,96.63
2022-12-25T07:49:06.689Z,96.09
2022-12-25T07:51:33.275Z,96.26
2022-12-25T07:53:59.626Z,96.38
2022-12-25T07:56:26.132Z,96.33
2022-12-25T07:58:52.622Z,96.44
2022-12-25T08:01:22.692Z,96.58
2022-12-25T08:04:02.780Z,96.21
2022-12-25T08:06:34.893Z,96.25
2022-12-25T08:09:10.324Z,96.05
2022-12-25T08:11:37.640Z,96.46
2022-12-25T08:14:08.508Z,95.87
2022-12-25T08:16:35.457Z,95.67
2022-12-25T08:19:01.943Z,95.97
2022-12-25T08:21:28.415Z,96.44
2022-12-25T08:23:54.829Z,96.26
2022-12-25T08:26:23.049Z,95.90
2022-12-25T08:28:50.460Z,95.84
2022-12-25T08:31:23.002Z,95.63
2022-12-25T08:33:51.751Z,95.79
2022-12-25T08:36:18.248Z,95.73
2022-12-25T08:38:45.653Z,95.92
2022-12-25T08:41:15.048Z,95.56
2022-12-25T08:43:41.723Z,95.46
2022-12-25T08:46:08.551Z,95.80
2022-12-25T08:48:35.463Z,95.62
2022-12-25T08:51:02.525Z,95.36
2022-12-25T08:53:29.056Z,95.52
2022-12-25T08:56:06.430Z,95.82
2022-12-25T08:58:33.521Z,95.91
2022-12-25T09:01:00.595Z,95.66
2022-12-25T09:03:27.651Z,95.55
2022-12-25T09:05:54.803Z,95.39
2022-12-25T09:08:21.774Z,94.40
2022-12-25T09:10:49.005Z,94.38
2022-12-25T09:13:15.675Z,94.76
2022-12-25T09:15:42.105Z,93.92
2022-12-25T09:18:08.489Z,93.49
2022-12-25T09:20:34.854Z,93.03
2022-12-25T09:23:01.210Z,92.96
2022-12-25T09:25:27.786Z,94.01
2022-12-25T09:27:56.646Z,93.19
2022-12-25T09:30:23.167Z,92.80
2022-12-25T09:32:49.626Z,92.59
2022-12-25T09:35:18.384Z,92.51
2022-12-25T09:37:45.292Z,92.46
2022-12-25T09:40:21.124Z,92.68
2022-12-25T09:42:49.368Z,91.76
2022-12-25T09:45:25.970Z,92.18
2022-12-25T09:47:56.799Z,91.86
2022-12-25T09:50:38.089Z,92.06
2022-12-25T09:53:12.585Z,91.16
2022-12-25T09:55:48.391Z,91.68
2022-12-25T09:58:14.819Z,91.36
2022-12-25T10:00:46.737Z,91.11
2022-12-25T10:03:44.077Z,91.16
2022-12-25T10:06:20.687Z,90.89
2022-12-25T10:09:11.270Z,90.92
2022-12-25T10:11:49.902Z,90.53
2022-12-25T10:14:23.607Z,90.81
2022-12-25T10:17:02.121Z,91.00
2022-12-25T10:19:56.456Z,89.31
2022-12-25T10:22:42.379Z,90.08
2022-12-25T10:25:17.241Z,89.78
2022-12-25T10:27:43.766Z,89.56
2022-12-25T10:30:15.844Z,89.29
2022-12-25T10:32:43.290Z,89.50
2022-12-25T10:35:18.624Z,89.61
2022-12-25T10:37:52.594Z,88.78
2022-12-25T10:40:39.678Z,89.20
2022-12-25T10:43:16.443Z,88.59
2022-12-25T10:45:47.292Z,88.45
2022-12-25T10:48:25.280Z,88.29
2022-12-25T10:50:53.015Z,88.59
2022-12-25T10:53:26.388Z,87.73
2022-12-25T10:55:58.420Z,88.16
2022-12-25T10:58:25.440Z,87.66
2022-12-25T11:00:59.036Z,87.36
2022-12-25T11:03:30.443Z,88.20
2022-12-25T11:05:57.952Z,86.95
2022-12-25T11:08:27.573Z,87.77
2022-12-25T11:10:57.393Z,87.41
2022-12-25T11:13:29.077Z,87.31
2022-12-25T11:16:15.002Z,86.50
2022-12-25T11:18:48.108Z,85.93
2022-12-25T11:21:22.335Z,86.09
2022-12-25T11:23:55.466Z,85.80
2022-12-25T11:26:21.844Z,86.11
2022-12-25T11:28:51.152Z,86.00
2022-12-25T11:31:23.415Z,85.18
2022-12-25T11:34:05.189Z,85.73
2022-12-25T11:36:45.523Z,84.56
2022-12-25T11:39:16.428Z,85.32
2022-12-25T11:41:43.906Z,85.37
2022-12-25T11:44:28.542Z,85.05
2022-12-25T11:46:56.157Z,84.31
2022-12-25T11:49:23.271Z,84.72
2022-12-25T11:51:53.621Z,84.55
2022-12-25T11:54:24.035Z,84.85
2022-12-25T11:56:52.412Z,85.05
2022-12-25T11:59:26.371Z,84.36
2022-12-25T12:01:58.730Z,84.81
2022-12-25T12:04:42.409Z,84.54
2022-12-25T12:07:26.650Z,84.96
2022-12-25T12:10:18.219Z,84.99
2022-12-25T12:13:04.237Z,84.90
2022-12-25T12:15:44.050Z,84.67
2022-12-25T12:18:30.534Z,84.70
2022-12-25T12:20:58.285Z,85.18
2022-12-25T12:23:25.371Z,84.79
2022-12-25T12:25:52.568Z,84.47
2022-12-25T12:28:26.274Z,83.89
2022-12-25T12:31:02.349Z,83.39
2022-12-25T12:33:34.607Z,83.78
2022-12-25T12:36:03.708Z,83.68
2022-12-25T12:38:32.198Z,82.86
2022-12-25T12:41:04.146Z,82.96
2022-12-25T12:43:48.202Z,83.06
2022-12-25T12:46:27.681Z,82.70
2022-12-25T12:49:21.866Z,82.69
2022-12-25T12:51:49.300Z,82.76
2022-12-25T12:54:24.212Z,82.97
2022-12-25T12:57:06.023Z,82.94
2022-12-25T12:59:44.323Z,83.23
2022-12-25T13:02:29.368Z,83.61
2022-12-25T13:05:34.641Z,83.97
2022-12-25T13:08:27.295Z,83.84
2022-12-25T13:11:22.315Z,83.10
2022-12-25T13:13:52.144Z,83.67
2022-12-25T13:16:36.760Z,83.49
2022-12-25T13:19:12.029Z,83.62
2022-12-25T13:21:38.678Z,83.36
2022-12-25T13:24:17.860Z,82.61
2022-12-25T13:26:44.246Z,83.36
2022-12-25T13:29:36.173Z,82.83
2022-12-25T13:32:05.871Z,82.50
2022-12-25T13:34:40.819Z,82.30
2022-12-25T13:37:10.322Z,82.72
2022-12-25T13:39:39.328Z,82.01
2022-12-25T13:42:09.352Z,82.27
2022-12-25T13:44:44.913Z,81.70
2022-12-25T13:47:22.759Z,82.19
2022-12-25T13:49:51.147Z,82.62
2022-12-25T13:52:42.591Z,83.05
2022-12-25T13:55:11.955Z,83.42
2022-12-25T13:57:41.525Z,83.66
2022-12-25T14:00:17.257Z,83.71
2022-12-25T14:02:45.368Z,84.28
2022-12-25T14:05:41.361Z,84.26
2022-12-25T14:08:22.117Z,84.29
2022-12-25T14:10:52.350Z,84.56
2022-12-25T14:13:22.472Z,84.61
2022-12-25T14:15:50.160Z,84.77
2022-12-25T14:18:18.669Z,85.24
2022-12-25T14:21:21.569Z,85.17
2022-12-25T14:23:50.006Z,84.36
2022-12-25T14:26:20.373Z,84.47
2022-12-25T14:29:13.944Z,83.84
2022-12-25T14:31:47.220Z,84.01
2022-12-25T14:34:18.414Z,84.20
2022-12-25T14:36:45.390Z,83.79
2022-12-25T14:39:31.511Z,84.24
2022-12-25T14:41:58.330Z,83.95
2022-12-25T14:44:42.670Z,84.25
2022-12-25T14:47:20.410Z,83.99
2022-12-25T14:49:48.155Z,83.98
2022-12-25T14:52:37.305Z,84.78
2022-12-25T14:55:07.755Z,84.52
2022-12-25T14:57:39.110Z,85.54
2022-12-25T15:00:23.670Z,84.96
2022-12-25T15:02:53.768Z,85.64
2022-12-25T15:05:24.728Z,85.94
2022-12-25T15:08:10.166Z,85.83
2022-12-25T15:13:25.752Z,86.90
2022-12-25T15:15:57.590Z,87.21
2022-12-25T15:18:27.485Z,87.34
2022-12-25T15:20:55.329Z,87.62
2022-12-25T15:23:22.215Z,87.87
2022-12-25T15:25:48.728Z,88.39
2022-12-25T15:28:15.175Z,88.02
2022-12-25T15:30:41.698Z,87.55
2022-12-25T15:33:14.754Z,87.65
2022-12-25T15:35:41.849Z,87.87
2022-12-25T15:38:09.444Z,88.07
2022-12-25T15:40:35.947Z,88.00
2022-12-25T15:43:06.352Z,87.93
2022-12-25T15:45:38.183Z,87.76
2022-12-25T15:48:04.770Z,87.75
2022-12-25T15:50:32.567Z,87.83
2022-12-25T15:52:58.998Z,87.70
2022-12-25T15:55:26.679Z,87.89
2022-12-25T15:57:54.574Z,88.03
2022-12-25T16:00:23.337Z,88.71
2022-12-25T16:02:54.360Z,88.33
2022-12-25T16:05:29.104Z,88.40
2022-12-25T16:07:56.212Z,88.45
2022-12-25T16:10:22.942Z,88.54
2022-12-25T16:12:51.535Z,88.58
2022-12-25T16:15:19.259Z,88.87
2022-12-25T16:17:51.626Z,88.24
2022-12-25T16:20:22.481Z,87.96
2022-12-25T16:22:51.905Z,88.35
2022-12-25T16:25:24.497Z,87.72
2022-12-25T16:28:00.335Z,88.34
2022-12-25T16:30:27.196Z,87.69
2022-12-25T16:32:56.849Z,88.15
2022-12-25T16:35:24.996Z,87.97
2022-12-25T16:37:59.078Z,88.39
2022-12-25T16:40:29.513Z,87.57
2022-12-25T16:42:56.347Z,88.08
2022-12-25T16:45:26.114Z,88.14
2022-12-25T16:47:56.746Z,88.00
2022-12-25T16:50:24.386Z,88.19
2022-12-25T16:52:56.011Z,87.48
2022-12-25T16:55:30.370Z,87.62
2022-12-25T16:57:57.212Z,88.04
2022-12-25T17:00:24.748Z,87.49
2022-12-25T17:02:51.667Z,87.68
2022-12-25T17:05:20.400Z,87.39
2022-12-25T17:07:49.835Z,87.58
2022-12-25T17:10:18.697Z,87.53
2022-12-25T17:12:47.979Z,87.79
2022-12-25T17:15:15.885Z,87.60
2022-12-25T17:17:43.300Z,87.54
2022-12-25T17:20:12.044Z,87.41
2022-12-25T17:22:42.359Z,87.60
2022-12-25T17:25:17.051Z,87.58
2022-12-25T17:27:45.389Z,87.36
2022-12-25T17:30:17.247Z,87.31
2022-12-25T17:32:44.364Z,87.63
2022-12-25T17:35:10.805Z,87.09
2022-12-25T17:37:37.165Z,87.37
2022-12-25T17:40:04.149Z,87.32
2022-12-25T17:42:30.572Z,87.16
2022-12-25T17:44:57.091Z,86.96
2022-12-25T17:47:23.505Z,87.82
2022-12-25T17:49:50.999Z,87.38
2022-12-25T17:52:17.662Z,86.94
2022-12-25T17:54:44.111Z,87.28
2022-12-25T17:57:10.589Z,87.28
2022-12-25T17:59:36.956Z,87.74
2022-12-25T18:02:03.514Z,87.82
2022-12-25T18:04:29.912Z,87.04
2022-12-25T18:06:56.401Z,87.68
2022-12-25T18:09:22.832Z,88.02
2022-12-25T18:11:49.213Z,87.57
2022-12-25T18:14:16.617Z,87.98
2022-12-25T18:16:45.057Z,88.03
2022-12-25T18:19:12.726Z,88.06
2022-12-25T18:21:39.312Z,87.58
2022-12-25T18:24:07.190Z,87.50
2022-12-25T18:26:34.342Z,87.04
2022-12-25T18:29:00.907Z,86.82
2022-12-25T18:31:30.131Z,86.47
2022-12-25T18:33:58.260Z,86.51
2022-12-25T18:36:25.994Z,86.67
2022-12-25T18:38:54.036Z,86.89
2022-12-25T18:41:22.202Z,86.80
2022-12-25T18:43:52.569Z,86.86
2022-12-25T18:46:23.885Z,86.73
2022-12-25T18:48:53.214Z,86.96
2022-12-25T18:51:19.865Z,86.65
2022-12-25T18:53:48.767Z,87.53
2022-12-25T18:56:17.682Z,87.16
2022-12-25T18:58:45.612Z,87.25
2022-12-25T19:01:18.760Z,86.82
2022-12-25T19:03:46.122Z,86.27
2022-12-25T19:06:21.603Z,86.25
2022-12-25T19:08:48.554Z,85.84
2022-12-25T19:11:16.290Z,86.31
2022-12-25T19:13:43.313Z,86.15
2022-12-25T19:16:10.133Z,86.04
2022-12-25T19:18:37.619Z,85.64
2022-12-25T19:21:06.718Z,86.16
2022-12-25T19:23:33.443Z,86.35
2022-12-25T19:26:00.045Z,86.61
2022-12-25T19:28:26.480Z,86.87
2022-12-25T19:30:54.077Z,87.13
2022-12-25T19:33:21.690Z,86.68
2022-12-25T19:35:48.909Z,86.40
2022-12-25T19:38:15.823Z,86.54
2022-12-25T19:40:59.951Z,86.95
2022-12-25T19:43:32.052Z,86.22
2022-12-25T19:46:01.863Z,86.02
2022-12-25T19:48:28.392Z,86.24
2022-12-25T19:50:54.958Z,86.24
2022-12-25T19:53:23.674Z,86.09
2022-12-25T19:55:52.361Z,86.25
2022-12-25T19:58:20.359Z,86.16
2022-12-25T20:01:07.324Z,86.44
2022-12-25T20:03:41.744Z,86.35
2022-12-25T20:06:19.675Z,86.76
2022-12-25T20:08:47.461Z,86.80
2022-12-25T20:11:14.228Z,86.17
2022-12-25T20:13:40.744Z,86.08
2022-12-25T20:16:08.996Z,86.15
2022-12-25T20:18:37.009Z,85.91
2022-12-25T20:21:06.489Z,86.19
2022-12-25T20:23:33.497Z,86.50
2022-12-25T20:26:04.183Z,87.07
2022-12-25T20:28:32.363Z,87.39
2022-12-25T20:31:08.829Z,87.12
2022-12-25T20:33:39.457Z,87.31
2022-12-25T20:36:09.466Z,87.31
2022-12-25T20:38:37.251Z,87.72
2022-12-25T20:41:29.672Z,87.60
2022-12-25T20:43:58.587Z,87.75
2022-12-25T20:46:26.191Z,88.18
2022-12-25T20:48:53.514Z,87.81
2022-12-25T20:51:27.849Z,88.49
2022-12-25T20:53:55.388Z,87.78
2022-12-25T20:56:25.976Z,87.93
2022-12-25T20:59:00.764Z,88.12
2022-12-25T21:01:32.201Z,88.11
2022-12-25T21:03:59.884Z,88.54
2022-12-25T21:06:28.389Z,88.46
2022-12-25T21:08:57.878Z,88.78
2022-12-25T21:11:26.569Z,88.14
2022-12-25T21:13:54.329Z,88.14
2022-12-25T21:16:22.758Z,88.05
2022-12-25T21:18:51.003Z,88.28
2022-12-25T21:21:17.636Z,87.84
2022-12-25T21:23:45.444Z,88.79
2022-12-25T21:26:26.594Z,88.75
2022-12-25T21:28:57.561Z,88.36
2022-12-25T21:31:24.751Z,88.80
2022-12-25T21:33:51.226Z,88.78
2022-12-25T21:36:24.135Z,89.04
2022-12-25T21:39:05.251Z,89.12
2022-12-25T21:41:33.343Z,89.46
2022-12-25T21:44:00.406Z,88.92
2022-12-25T21:46:27.925Z,89.76
2022-12-25T21:48:55.004Z,89.54
2022-12-25T21:51:46.581Z,89.35
2022-12-25T21:54:14.468Z,89.28
2022-12-25T21:56:44.809Z,89.72
2022-12-25T21:59:17.462Z,90.03
2022-12-25T22:01:44.742Z,90.17
2022-12-25T22:04:12.854Z,89.81
2022-12-25T22:06:58.078Z,89.89
2022-12-25T22:09:24.825Z,89.82
2022-12-25T22:12:10.072Z,90.09
2022-12-25T22:14:56.775Z,90.35
2022-12-25T22:17:44.157Z,90.16
2022-12-25T22:20:21.622Z,89.93
2022-12-25T22:22:48.978Z,89.98
2022-12-25T22:25:16.877Z,90.52
2022-12-25T22:27:46.488Z,90.43
2022-12-25T22:30:16.052Z,91.19
2022-12-25T22:32:42.936Z,91.30
2022-12-25T22:35:10.077Z,91.92
2022-12-25T22:37:36.775Z,91.61
2022-12-25T22:40:05.825Z,92.17
2022-12-25T22:42:32.570Z,92.17
2022-12-25T22:44:59.016Z,91.90
2022-12-25T22:47:25.468Z,91.92
2022-12-25T22:49:51.911Z,91.60
2022-12-25T22:52:18.634Z,91.93
2022-12-25T22:54:44.991Z,91.76
2022-12-25T22:57:11.372Z,92.02
2022-12-25T22:59:37.786Z,92.12
2022-12-25T23:02:04.305Z,91.92
2022-12-25T23:04:30.829Z,92.65
2022-12-25T23:06:57.367Z,92.28
2022-12-25T23:09:27.616Z,92.85
2022-12-25T23:11:58.581Z,92.44
2022-12-25T23:14:41.569Z,92.64
2022-12-25T23:17:31.570Z,93.14
2022-12-25T23:20:18.661Z,93.15
2022-12-25T23:23:05.180Z,93.46
2022-12-25T23:25:50.609Z,93.81
2022-12-25T23:28:39.611Z,94.14
2022-12-25T23:31:06.617Z,93.62
2022-12-25T23:33:33.145Z,93.85
2022-12-25T23:35:59.627Z,93.65
2022-12-25T23:38:25.999Z,94.08
2022-12-25T23:40:52.681Z,94.44
2022-12-25T23:43:19.357Z,94.10
2022-12-25T23:45:45.762Z,93.91
2022-12-25T23:48:12.157Z,94.16
2022-12-25T23:50:38.525Z,93.91
2022-12-25T23:53:04.860Z,93.98
2022-12-25T23:55:32.850Z,94.15
2022-12-25T23:57:59.235Z,94.50
